sensor_id;sensor_type;location;lat;lon;timestamp;P1;durP1;ratioP1;P2;durP2;ratioP2
38457;SDS011;24239;48.058;10.486;2022-08-19T00:00:27;25.63;;;20.90;;
38457;SDS011;24239;48.058;10.486;2022-08-19T00:02:52;29.95;;;23.13;;
38457;SDS011;24239;48.058;10.486;2022-08-19T00:05:19;29.58;;;22.55;;
38457;SDS011;24239;48.058;10.486;2022-08-19T00:07:48;29.52;;;22.83;;
38457;SDS011;24239;48.058;10.486;2022-08-19T00:10:15;28.65;;;22.23;;
38457;SDS011;24239;48.058;10.486;2022-08-19T00:12:44;27.17;;;21.63;;
38457;SDS011;24239;48.058;10.486;2022-08-19T00:15:11;28.25;;;23.13;;
38457;SDS011;24239;48.058;10.486;2022-08-19T00:17:40;26.02;;;22.15;;
38457;SDS011;24239;48.058;10.486;2022-08-19T00:20:08;27.25;;;21.67;;
38457;SDS011;24239;48.058;10.486;2022-08-19T00:22:37;24.90;;;20.85;;
38457;SDS011;24239;48.058;10.486;2022-08-19T00:25:03;26.30;;;22.52;;
38457;SDS011;24239;48.058;10.486;2022-08-19T00:27:33;23.98;;;20.65;;
38457;SDS011;24239;48.058;10.486;2022-08-19T00:29:59;25.83;;;21.65;;
38457;SDS011;24239;48.058;10.486;2022-08-19T00:32:29;27.45;;;22.40;;
38457;SDS011;24239;48.058;10.486;2022-08-19T00:34:55;29.10;;;22.58;;
38457;SDS011;24239;48.058;10.486;2022-08-19T00:37:21;25.05;;;20.65;;
38457;SDS011;24239;48.058;10.486;2022-08-19T00:39:51;28.92;;;22.75;;
38457;SDS011;24239;48.058;10.486;2022-08-19T00:42:21;24.98;;;21.73;;
38457;SDS011;24239;48.058;10.486;2022-08-19T00:44:53;30.10;;;23.38;;
38457;SDS011;24239;48.058;10.486;2022-08-19T00:47:19;30.17;;;22.52;;
38457;SDS011;24239;48.058;10.486;2022-08-19T00:49:52;28.65;;;21.60;;
38457;SDS011;24239;48.058;10.486;2022-08-19T00:52:28;29.65;;;22.60;;
38457;SDS011;24239;48.058;10.486;2022-08-19T00:54:57;29.88;;;22.50;;
38457;SDS011;24239;48.058;10.486;2022-08-19T00:57:26;30.75;;;23.60;;
38457;SDS011;24239;48.058;10.486;2022-08-19T01:00:03;30.48;;;22.55;;
38457;SDS011;24239;48.058;10.486;2022-08-19T01:02:32;31.33;;;22.55;;
38457;SDS011;24239;48.058;10.486;2022-08-19T01:04:59;30.60;;;22.75;;
38457;SDS011;24239;48.058;10.486;2022-08-19T01:07:30;33.38;;;23.52;;
38457;SDS011;24239;48.058;10.486;2022-08-19T01:09:55;34.10;;;24.63;;
38457;SDS011;24239;48.058;10.486;2022-08-19T01:12:22;32.17;;;24.30;;
38457;SDS011;24239;48.058;10.486;2022-08-19T01:14:48;31.30;;;23.70;;
38457;SDS011;24239;48.058;10.486;2022-08-19T01:17:15;34.05;;;23.77;;
38457;SDS011;24239;48.058;10.486;2022-08-19T01:19:45;33.30;;;23.95;;
38457;SDS011;24239;48.058;10.486;2022-08-19T01:22:46;37.40;;;24.83;;
38457;SDS011;24239;48.058;10.486;2022-08-19T01:25:08;34.78;;;24.75;;
38457;SDS011;24239;48.058;10.486;2022-08-19T01:27:41;35.15;;;24.70;;
38457;SDS011;24239;48.058;10.486;2022-08-19T01:30:09;33.42;;;24.55;;
38457;SDS011;24239;48.058;10.486;2022-08-19T01:32:40;31.40;;;23.35;;
38457;SDS011;24239;48.058;10.486;2022-08-19T01:35:06;32.35;;;23.38;;
38457;SDS011;24239;48.058;10.486;2022-08-19T01:37:41;34.20;;;24.90;;
38457;SDS011;24239;48.058;10.486;2022-08-19T01:40:09;34.25;;;24.73;;
38457;SDS011;24239;48.058;10.486;2022-08-19T01:42:35;35.08;;;25.73;;
38457;SDS011;24239;48.058;10.486;2022-08-19T01:45:01;34.85;;;25.83;;
38457;SDS011;24239;48.058;10.486;2022-08-19T01:47:27;39.72;;;26.75;;
38457;SDS011;24239;48.058;10.486;2022-08-19T01:49:53;33.55;;;24.95;;
38457;SDS011;24239;48.058;10.486;2022-08-19T01:52:19;35.55;;;25.63;;
38457;SDS011;24239;48.058;10.486;2022-08-19T01:54:44;37.17;;;26.42;;
38457;SDS011;24239;48.058;10.486;2022-08-19T01:57:11;35.35;;;25.52;;
38457;SDS011;24239;48.058;10.486;2022-08-19T01:59:39;33.45;;;23.35;;
38457;SDS011;24239;48.058;10.486;2022-08-19T02:02:09;31.10;;;23.23;;
38457;SDS011;24239;48.058;10.486;2022-08-19T02:04:35;35.05;;;25.40;;
38457;SDS011;24239;48.058;10.486;2022-08-19T02:07:03;34.25;;;24.38;;
38457;SDS011;24239;48.058;10.486;2022-08-19T02:09:30;32.13;;;24.15;;
38457;SDS011;24239;48.058;10.486;2022-08-19T02:11:56;32.60;;;23.90;;
38457;SDS011;24239;48.058;10.486;2022-08-19T02:14:22;37.25;;;25.38;;
38457;SDS011;24239;48.058;10.486;2022-08-19T02:16:52;32.17;;;24.80;;
38457;SDS011;24239;48.058;10.486;2022-08-19T02:19:17;33.88;;;25.42;;
38457;SDS011;24239;48.058;10.486;2022-08-19T02:21:43;33.78;;;25.02;;
38457;SDS011;24239;48.058;10.486;2022-08-19T02:24:09;38.50;;;25.35;;
38457;SDS011;24239;48.058;10.486;2022-08-19T02:26:35;31.75;;;23.30;;
38457;SDS011;24239;48.058;10.486;2022-08-19T02:29:01;29.65;;;23.83;;
38457;SDS011;24239;48.058;10.486;2022-08-19T02:31:30;32.10;;;23.98;;
38457;SDS011;24239;48.058;10.486;2022-08-19T02:33:56;32.72;;;25.42;;
38457;SDS011;24239;48.058;10.486;2022-08-19T02:36:25;33.90;;;24.10;;
38457;SDS011;24239;48.058;10.486;2022-08-19T02:38:54;30.52;;;23.25;;
38457;SDS011;24239;48.058;10.486;2022-08-19T02:41:22;30.05;;;24.08;;
38457;SDS011;24239;48.058;10.486;2022-08-19T02:43:50;28.65;;;23.67;;
38457;SDS011;24239;48.058;10.486;2022-08-19T02:48:50;32.72;;;22.70;;
38457;SDS011;24239;48.058;10.486;2022-08-19T02:51:18;32.95;;;22.60;;
38457;SDS011;24239;48.058;10.486;2022-08-19T02:53:46;30.27;;;23.45;;
38457;SDS011;24239;48.058;10.486;2022-08-19T02:56:12;28.10;;;22.75;;
38457;SDS011;24239;48.058;10.486;2022-08-19T02:58:38;27.95;;;22.95;;
38457;SDS011;24239;48.058;10.486;2022-08-19T03:01:05;31.98;;;22.85;;
38457;SDS011;24239;48.058;10.486;2022-08-19T03:03:31;30.40;;;22.08;;
38457;SDS011;24239;48.058;10.486;2022-08-19T03:06:07;29.15;;;22.55;;
38457;SDS011;24239;48.058;10.486;2022-08-19T03:08:36;29.92;;;23.13;;
38457;SDS011;24239;48.058;10.486;2022-08-19T03:11:02;30.00;;;24.05;;
38457;SDS011;24239;48.058;10.486;2022-08-19T03:13:28;32.80;;;24.92;;
38457;SDS011;24239;48.058;10.486;2022-08-19T03:15:54;33.67;;;24.48;;
38457;SDS011;24239;48.058;10.486;2022-08-19T03:18:20;30.70;;;23.40;;
38457;SDS011;24239;48.058;10.486;2022-08-19T03:20:47;31.80;;;23.77;;
38457;SDS011;24239;48.058;10.486;2022-08-19T03:23:15;31.80;;;23.95;;
38457;SDS011;24239;48.058;10.486;2022-08-19T03:25:43;31.23;;;25.58;;
38457;SDS011;24239;48.058;10.486;2022-08-19T03:28:11;35.95;;;25.55;;
38457;SDS011;24239;48.058;10.486;2022-08-19T03:30:39;31.13;;;24.10;;
38457;SDS011;24239;48.058;10.486;2022-08-19T03:33:06;34.50;;;25.38;;
38457;SDS011;24239;48.058;10.486;2022-08-19T03:35:42;32.88;;;25.15;;
38457;SDS011;24239;48.058;10.486;2022-08-19T03:38:08;32.45;;;23.73;;
38457;SDS011;24239;48.058;10.486;2022-08-19T03:40:36;29.38;;;23.75;;
38457;SDS011;24239;48.058;10.486;2022-08-19T03:43:02;37.78;;;24.23;;
38457;SDS011;24239;48.058;10.486;2022-08-19T03:45:28;34.03;;;24.35;;
38457;SDS011;24239;48.058;10.486;2022-08-19T03:47:54;31.58;;;24.17;;
38457;SDS011;24239;48.058;10.486;2022-08-19T03:50:20;32.10;;;24.13;;
38457;SDS011;24239;48.058;10.486;2022-08-19T03:52:50;36.17;;;26.40;;
38457;SDS011;24239;48.058;10.486;2022-08-19T03:55:16;33.65;;;26.55;;
38457;SDS011;24239;48.058;10.486;2022-08-19T03:57:43;40.10;;;27.85;;
38457;SDS011;24239;48.058;10.486;2022-08-19T04:00:10;41.50;;;29.98;;
38457;SDS011;24239;48.058;10.486;2022-08-19T04:02:39;36.65;;;27.52;;
38457;SDS011;24239;48.058;10.486;2022-08-19T04:05:09;37.03;;;28.08;;
38457;SDS011;24239;48.058;10.486;2022-08-19T04:07:35;39.03;;;30.67;;
38457;SDS011;24239;48.058;10.486;2022-08-19T04:10:01;44.95;;;33.28;;
38457;SDS011;24239;48.058;10.486;2022-08-19T04:12:28;42.10;;;32.10;;
38457;SDS011;24239;48.058;10.486;2022-08-19T04:14:54;44.28;;;31.17;;
38457;SDS011;24239;48.058;10.486;2022-08-19T04:17:19;51.63;;;33.70;;
38457;SDS011;24239;48.058;10.486;2022-08-19T04:19:45;44.72;;;33.25;;
38457;SDS011;24239;48.058;10.486;2022-08-19T04:22:11;48.92;;;36.28;;
38457;SDS011;24239;48.058;10.486;2022-08-19T04:24:36;48.72;;;33.97;;
38457;SDS011;24239;48.058;10.486;2022-08-19T04:27:03;51.63;;;36.03;;
38457;SDS011;24239;48.058;10.486;2022-08-19T04:29:30;53.65;;;38.33;;
38457;SDS011;24239;48.058;10.486;2022-08-19T04:31:56;52.13;;;37.15;;
38457;SDS011;24239;48.058;10.486;2022-08-19T04:34:24;49.63;;;34.33;;
38457;SDS011;24239;48.058;10.486;2022-08-19T04:36:52;48.50;;;36.25;;
38457;SDS011;24239;48.058;10.486;2022-08-19T04:39:21;48.60;;;35.08;;
38457;SDS011;24239;48.058;10.486;2022-08-19T04:42:14;50.25;;;36.25;;
38457;SDS011;24239;48.058;10.486;2022-08-19T04:45:00;47.70;;;37.33;;
38457;SDS011;24239;48.058;10.486;2022-08-19T04:47:28;52.53;;;39.30;;
38457;SDS011;24239;48.058;10.486;2022-08-19T04:49:55;53.15;;;36.63;;
38457;SDS011;24239;48.058;10.486;2022-08-19T04:52:20;49.50;;;35.70;;
38457;SDS011;24239;48.058;10.486;2022-08-19T04:54:46;45.00;;;34.92;;
38457;SDS011;24239;48.058;10.486;2022-08-19T04:57:13;45.55;;;35.15;;
38457;SDS011;24239;48.058;10.486;2022-08-19T04:59:39;48.97;;;35.42;;
38457;SDS011;24239;48.058;10.486;2022-08-19T05:02:08;50.10;;;35.22;;
38457;SDS011;24239;48.058;10.486;2022-08-19T05:04:34;49.67;;;35.28;;
38457;SDS011;24239;48.058;10.486;2022-08-19T05:07:03;43.58;;;34.75;;
38457;SDS011;24239;48.058;10.486;2022-08-19T05:09:29;44.95;;;34.25;;
38457;SDS011;24239;48.058;10.486;2022-08-19T05:11:58;49.80;;;36.65;;
38457;SDS011;24239;48.058;10.486;2022-08-19T05:14:25;50.72;;;34.42;;
38457;SDS011;24239;48.058;10.486;2022-08-19T05:16:50;52.03;;;38.03;;
38457;SDS011;24239;48.058;10.486;2022-08-19T05:19:16;47.20;;;35.92;;
38457;SDS011;24239;48.058;10.486;2022-08-19T05:22:00;55.50;;;39.90;;
38457;SDS011;24239;48.058;10.486;2022-08-19T05:24:45;56.70;;;39.70;;
38457;SDS011;24239;48.058;10.486;2022-08-19T05:27:11;45.67;;;35.58;;
38457;SDS011;24239;48.058;10.486;2022-08-19T05:29:37;48.75;;;36.40;;
38457;SDS011;24239;48.058;10.486;2022-08-19T05:32:06;50.38;;;37.03;;
38457;SDS011;24239;48.058;10.486;2022-08-19T05:34:35;53.30;;;37.28;;
38457;SDS011;24239;48.058;10.486;2022-08-19T05:37:05;51.40;;;37.42;;
38457;SDS011;24239;48.058;10.486;2022-08-19T05:39:33;55.97;;;36.72;;
38457;SDS011;24239;48.058;10.486;2022-08-19T05:42:03;53.38;;;37.67;;
38457;SDS011;24239;48.058;10.486;2022-08-19T05:44:35;46.20;;;35.08;;
38457;SDS011;24239;48.058;10.486;2022-08-19T05:47:04;50.20;;;38.13;;
38457;SDS011;24239;48.058;10.486;2022-08-19T05:49:33;51.83;;;36.60;;
38457;SDS011;24239;48.058;10.486;2022-08-19T05:52:05;52.75;;;36.50;;
38457;SDS011;24239;48.058;10.486;2022-08-19T05:54:33;62.17;;;40.13;;
38457;SDS011;24239;48.058;10.486;2022-08-19T05:57:01;58.78;;;39.55;;
38457;SDS011;24239;48.058;10.486;2022-08-19T05:59:29;64.45;;;40.20;;
38457;SDS011;24239;48.058;10.486;2022-08-19T06:01:55;62.90;;;40.58;;
38457;SDS011;24239;48.058;10.486;2022-08-19T06:04:23;62.58;;;40.35;;
38457;SDS011;24239;48.058;10.486;2022-08-19T06:06:51;65.13;;;41.28;;
38457;SDS011;24239;48.058;10.486;2022-08-19T06:09:20;66.65;;;43.88;;
38457;SDS011;24239;48.058;10.486;2022-08-19T06:11:48;71.72;;;43.70;;
38457;SDS011;24239;48.058;10.486;2022-08-19T06:14:25;69.68;;;43.90;;
38457;SDS011;24239;48.058;10.486;2022-08-19T06:16:54;68.63;;;44.60;;
38457;SDS011;24239;48.058;10.486;2022-08-19T06:19:29;78.75;;;45.85;;
38457;SDS011;24239;48.058;10.486;2022-08-19T06:21:57;77.47;;;47.30;;
38457;SDS011;24239;48.058;10.486;2022-08-19T06:24:26;84.65;;;50.40;;
38457;SDS011;24239;48.058;10.486;2022-08-19T06:26:57;87.60;;;51.40;;
38457;SDS011;24239;48.058;10.486;2022-08-19T06:29:25;89.55;;;52.13;;
38457;SDS011;24239;48.058;10.486;2022-08-19T06:31:55;89.53;;;50.42;;
38457;SDS011;24239;48.058;10.486;2022-08-19T06:34:22;101.85;;;54.83;;
38457;SDS011;24239;48.058;10.486;2022-08-19T06:36:52;89.97;;;49.17;;
38457;SDS011;24239;48.058;10.486;2022-08-19T06:39:20;95.47;;;53.10;;
38457;SDS011;24239;48.058;10.486;2022-08-19T06:41:50;97.85;;;52.67;;
38457;SDS011;24239;48.058;10.486;2022-08-19T06:44:18;76.80;;;44.50;;
38457;SDS011;24239;48.058;10.486;2022-08-19T06:46:46;50.08;;;35.08;;
38457;SDS011;24239;48.058;10.486;2022-08-19T06:49:13;52.65;;;35.55;;
38457;SDS011;24239;48.058;10.486;2022-08-19T06:51:41;50.20;;;34.80;;
38457;SDS011;24239;48.058;10.486;2022-08-19T06:54:07;57.05;;;38.90;;
38457;SDS011;24239;48.058;10.486;2022-08-19T06:56:33;57.55;;;36.97;;
38457;SDS011;24239;48.058;10.486;2022-08-19T06:59:09;69.47;;;41.17;;
38457;SDS011;24239;48.058;10.486;2022-08-19T07:01:41;73.53;;;41.45;;
38457;SDS011;24239;48.058;10.486;2022-08-19T07:04:10;80.30;;;45.70;;
38457;SDS011;24239;48.058;10.486;2022-08-19T07:06:36;78.80;;;46.13;;
38457;SDS011;24239;48.058;10.486;2022-08-19T07:09:06;92.28;;;47.72;;
38457;SDS011;24239;48.058;10.486;2022-08-19T07:11:33;92.03;;;47.93;;
38457;SDS011;24239;48.058;10.486;2022-08-19T07:14:00;83.70;;;47.60;;
38457;SDS011;24239;48.058;10.486;2022-08-19T07:16:27;91.88;;;49.25;;
38457;SDS011;24239;48.058;10.486;2022-08-19T07:18:53;101.93;;;48.92;;
38457;SDS011;24239;48.058;10.486;2022-08-19T07:21:24;79.68;;;45.60;;
38457;SDS011;24239;48.058;10.486;2022-08-19T07:23:53;81.53;;;43.92;;
38457;SDS011;24239;48.058;10.486;2022-08-19T07:26:24;78.20;;;44.70;;
38457;SDS011;24239;48.058;10.486;2022-08-19T07:28:52;71.22;;;41.53;;
38457;SDS011;24239;48.058;10.486;2022-08-19T07:31:20;65.50;;;40.55;;
38457;SDS011;24239;48.058;10.486;2022-08-19T07:33:48;77.60;;;43.53;;
38457;SDS011;24239;48.058;10.486;2022-08-19T07:36:18;73.05;;;42.28;;
38457;SDS011;24239;48.058;10.486;2022-08-19T07:38:46;75.60;;;43.28;;
38457;SDS011;24239;48.058;10.486;2022-08-19T07:41:16;74.10;;;43.05;;
38457;SDS011;24239;48.058;10.486;2022-08-19T07:43:47;80.88;;;43.22;;
38457;SDS011;24239;48.058;10.486;2022-08-19T07:46:14;66.35;;;39.47;;
38457;SDS011;24239;48.058;10.486;2022-08-19T07:48:42;66.50;;;38.50;;
38457;SDS011;24239;48.058;10.486;2022-08-19T07:51:12;63.13;;;36.97;;
38457;SDS011;24239;48.058;10.486;2022-08-19T07:53:39;53.50;;;32.97;;
38457;SDS011;24239;48.058;10.486;2022-08-19T07:56:06;61.20;;;35.30;;
38457;SDS011;24239;48.058;10.486;2022-08-19T07:58:33;56.85;;;32.88;;
38457;SDS011;24239;48.058;10.486;2022-08-19T08:01:01;58.90;;;34.40;;
38457;SDS011;24239;48.058;10.486;2022-08-19T08:03:29;56.08;;;34.40;;
38457;SDS011;24239;48.058;10.486;2022-08-19T08:06:13;59.47;;;33.88;;
38457;SDS011;24239;48.058;10.486;2022-08-19T08:08:58;49.20;;;27.73;;
38457;SDS011;24239;48.058;10.486;2022-08-19T08:11:54;38.20;;;27.35;;
38457;SDS011;24239;48.058;10.486;2022-08-19T08:14:47;37.67;;;24.77;;
38457;SDS011;24239;48.058;10.486;2022-08-19T08:17:18;30.63;;;20.52;;
38457;SDS011;24239;48.058;10.486;2022-08-19T08:22:15;39.03;;;23.95;;
38457;SDS011;24239;48.058;10.486;2022-08-19T08:25:05;46.30;;;27.77;;
38457;SDS011;24239;48.058;10.486;2022-08-19T08:27:37;40.60;;;26.48;;
38457;SDS011;24239;48.058;10.486;2022-08-19T08:30:05;42.72;;;26.70;;
38457;SDS011;24239;48.058;10.486;2022-08-19T08:32:34;44.13;;;27.77;;
38457;SDS011;24239;48.058;10.486;2022-08-19T08:35:02;41.72;;;25.05;;
38457;SDS011;24239;48.058;10.486;2022-08-19T08:37:29;39.78;;;26.52;;
38457;SDS011;24239;48.058;10.486;2022-08-19T08:39:55;36.90;;;24.35;;
38457;SDS011;24239;48.058;10.486;2022-08-19T08:42:27;36.80;;;24.50;;
38457;SDS011;24239;48.058;10.486;2022-08-19T08:45:12;38.58;;;24.25;;
38457;SDS011;24239;48.058;10.486;2022-08-19T08:47:41;39.63;;;24.33;;
38457;SDS011;24239;48.058;10.486;2022-08-19T08:50:44;37.85;;;24.65;;
38457;SDS011;24239;48.058;10.486;2022-08-19T08:53:07;34.10;;;22.95;;
38457;SDS011;24239;48.058;10.486;2022-08-19T08:55:35;39.03;;;25.08;;
38457;SDS011;24239;48.058;10.486;2022-08-19T08:58:06;50.55;;;31.10;;
38457;SDS011;24239;48.058;10.486;2022-08-19T09:00:44;58.13;;;34.17;;
38457;SDS011;24239;48.058;10.486;2022-08-19T09:03:17;57.80;;;33.00;;
38457;SDS011;24239;48.058;10.486;2022-08-19T09:08:33;68.07;;;35.92;;
38457;SDS011;24239;48.058;10.486;2022-08-19T09:11:04;68.13;;;37.03;;
38457;SDS011;24239;48.058;10.486;2022-08-19T09:16:31;64.88;;;36.80;;
38457;SDS011;24239;48.058;10.486;2022-08-19T09:19:03;63.95;;;36.47;;
38457;SDS011;24239;48.058;10.486;2022-08-19T09:21:29;71.85;;;36.92;;
38457;SDS011;24239;48.058;10.486;2022-08-19T09:23:55;63.13;;;35.58;;
38457;SDS011;24239;48.058;10.486;2022-08-19T09:26:23;58.72;;;34.85;;
38457;SDS011;24239;48.058;10.486;2022-08-19T09:28:50;64.60;;;35.90;;
38457;SDS011;24239;48.058;10.486;2022-08-19T09:31:22;67.82;;;37.63;;
38457;SDS011;24239;48.058;10.486;2022-08-19T09:33:50;63.42;;;36.35;;
38457;SDS011;24239;48.058;10.486;2022-08-19T09:36:18;56.67;;;33.58;;
38457;SDS011;24239;48.058;10.486;2022-08-19T09:38:45;67.45;;;35.72;;
38457;SDS011;24239;48.058;10.486;2022-08-19T09:41:13;79.32;;;38.42;;
38457;SDS011;24239;48.058;10.486;2022-08-19T09:43:41;64.32;;;35.95;;
38457;SDS011;24239;48.058;10.486;2022-08-19T09:46:12;45.03;;;27.73;;
38457;SDS011;24239;48.058;10.486;2022-08-19T09:48:38;33.17;;;20.17;;
38457;SDS011;24239;48.058;10.486;2022-08-19T09:51:11;30.38;;;20.08;;
38457;SDS011;24239;48.058;10.486;2022-08-19T09:53:40;33.83;;;21.15;;
38457;SDS011;24239;48.058;10.486;2022-08-19T09:56:07;25.65;;;17.95;;
38457;SDS011;24239;48.058;10.486;2022-08-19T09:58:34;23.08;;;15.85;;
38457;SDS011;24239;48.058;10.486;2022-08-19T10:01:00;29.95;;;17.83;;
38457;SDS011;24239;48.058;10.486;2022-08-19T10:03:27;28.15;;;17.75;;
38457;SDS011;24239;48.058;10.486;2022-08-19T10:05:54;31.08;;;19.63;;
38457;SDS011;24239;48.058;10.486;2022-08-19T10:08:25;24.23;;;16.42;;
38457;SDS011;24239;48.058;10.486;2022-08-19T10:10:54;30.02;;;19.15;;
38457;SDS011;24239;48.058;10.486;2022-08-19T10:13:21;30.50;;;18.67;;
38457;SDS011;24239;48.058;10.486;2022-08-19T10:15:54;30.25;;;17.63;;
38457;SDS011;24239;48.058;10.486;2022-08-19T10:18:27;24.75;;;15.50;;
38457;SDS011;24239;48.058;10.486;2022-08-19T10:21:01;31.63;;;18.77;;
38457;SDS011;24239;48.058;10.486;2022-08-19T10:23:38;27.50;;;17.92;;
38457;SDS011;24239;48.058;10.486;2022-08-19T10:26:09;36.65;;;19.50;;
38457;SDS011;24239;48.058;10.486;2022-08-19T10:28:36;29.02;;;17.50;;
38457;SDS011;24239;48.058;10.486;2022-08-19T10:31:03;23.50;;;14.23;;
38457;SDS011;24239;48.058;10.486;2022-08-19T10:33:32;20.35;;;13.32;;
38457;SDS011;24239;48.058;10.486;2022-08-19T10:36:00;17.60;;;11.88;;
38457;SDS011;24239;48.058;10.486;2022-08-19T10:38:27;16.85;;;11.82;;
38457;SDS011;24239;48.058;10.486;2022-08-19T10:40:54;17.58;;;12.27;;
38457;SDS011;24239;48.058;10.486;2022-08-19T10:43:20;14.90;;;10.95;;
38457;SDS011;24239;48.058;10.486;2022-08-19T10:45:51;16.52;;;11.73;;
38457;SDS011;24239;48.058;10.486;2022-08-19T10:48:21;16.60;;;11.50;;
38457;SDS011;24239;48.058;10.486;2022-08-19T10:50:46;17.30;;;12.20;;
38457;SDS011;24239;48.058;10.486;2022-08-19T10:53:31;19.80;;;12.40;;
38457;SDS011;24239;48.058;10.486;2022-08-19T10:55:57;20.55;;;12.98;;
38457;SDS011;24239;48.058;10.486;2022-08-19T10:58:43;22.15;;;13.65;;
38457;SDS011;24239;48.058;10.486;2022-08-19T11:01:09;20.27;;;14.00;;
38457;SDS011;24239;48.058;10.486;2022-08-19T11:03:35;20.25;;;13.73;;
38457;SDS011;24239;48.058;10.486;2022-08-19T11:06:05;18.08;;;11.80;;
38457;SDS011;24239;48.058;10.486;2022-08-19T11:08:33;16.55;;;11.90;;
38457;SDS011;24239;48.058;10.486;2022-08-19T11:11:00;17.52;;;11.23;;
38457;SDS011;24239;48.058;10.486;2022-08-19T11:13:28;17.65;;;12.25;;
38457;SDS011;24239;48.058;10.486;2022-08-19T11:16:07;18.27;;;12.50;;
38457;SDS011;24239;48.058;10.486;2022-08-19T11:18:36;17.95;;;12.10;;
38457;SDS011;24239;48.058;10.486;2022-08-19T11:21:07;19.70;;;12.68;;
38457;SDS011;24239;48.058;10.486;2022-08-19T11:23:35;17.80;;;11.63;;
38457;SDS011;24239;48.058;10.486;2022-08-19T11:26:01;15.20;;;10.77;;
38457;SDS011;24239;48.058;10.486;2022-08-19T11:28:27;19.70;;;13.07;;
38457;SDS011;24239;48.058;10.486;2022-08-19T11:30:53;17.90;;;12.55;;
38457;SDS011;24239;48.058;10.486;2022-08-19T11:33:18;17.90;;;13.20;;
38457;SDS011;24239;48.058;10.486;2022-08-19T11:35:44;20.65;;;14.38;;
38457;SDS011;24239;48.058;10.486;2022-08-19T11:38:10;26.15;;;16.17;;
38457;SDS011;24239;48.058;10.486;2022-08-19T11:40:36;31.02;;;18.40;;
38457;SDS011;24239;48.058;10.486;2022-08-19T11:43:02;29.05;;;19.05;;
38457;SDS011;24239;48.058;10.486;2022-08-19T11:45:29;35.05;;;21.17;;
38457;SDS011;24239;48.058;10.486;2022-08-19T11:47:55;37.38;;;22.83;;
38457;SDS011;24239;48.058;10.486;2022-08-19T11:50:22;36.83;;;24.10;;
38457;SDS011;24239;48.058;10.486;2022-08-19T11:52:48;41.40;;;25.23;;
38457;SDS011;24239;48.058;10.486;2022-08-19T11:55:15;42.55;;;26.63;;
38457;SDS011;24239;48.058;10.486;2022-08-19T11:57:41;46.25;;;27.90;;
38457;SDS011;24239;48.058;10.486;2022-08-19T12:00:12;38.78;;;25.08;;
38457;SDS011;24239;48.058;10.486;2022-08-19T12:02:41;47.28;;;28.83;;
38457;SDS011;24239;48.058;10.486;2022-08-19T12:05:12;53.67;;;31.05;;
38457;SDS011;24239;48.058;10.486;2022-08-19T12:07:38;58.50;;;33.88;;
38457;SDS011;24239;48.058;10.486;2022-08-19T12:10:04;63.28;;;34.85;;
38457;SDS011;24239;48.058;10.486;2022-08-19T12:12:30;58.55;;;35.05;;
38457;SDS011;24239;48.058;10.486;2022-08-19T12:14:59;51.50;;;30.00;;
38457;SDS011;24239;48.058;10.486;2022-08-19T12:17:27;52.25;;;30.83;;
38457;SDS011;24239;48.058;10.486;2022-08-19T12:19:54;43.45;;;27.08;;
38457;SDS011;24239;48.058;10.486;2022-08-19T12:22:23;47.63;;;28.35;;
38457;SDS011;24239;48.058;10.486;2022-08-19T12:24:48;38.78;;;26.23;;
38457;SDS011;24239;48.058;10.486;2022-08-19T12:27:17;51.28;;;29.40;;
38457;SDS011;24239;48.058;10.486;2022-08-19T12:29:43;55.58;;;30.88;;
38457;SDS011;24239;48.058;10.486;2022-08-19T12:32:09;49.08;;;29.75;;
38457;SDS011;24239;48.058;10.486;2022-08-19T12:34:35;43.30;;;27.40;;
38457;SDS011;24239;48.058;10.486;2022-08-19T12:37:02;39.38;;;24.23;;
38457;SDS011;24239;48.058;10.486;2022-08-19T12:39:33;42.90;;;26.35;;
38457;SDS011;24239;48.058;10.486;2022-08-19T12:42:00;41.97;;;26.67;;
38457;SDS011;24239;48.058;10.486;2022-08-19T12:44:25;42.17;;;27.02;;
38457;SDS011;24239;48.058;10.486;2022-08-19T12:46:51;41.15;;;26.80;;
38457;SDS011;24239;48.058;10.486;2022-08-19T12:49:17;41.63;;;25.35;;
38457;SDS011;24239;48.058;10.486;2022-08-19T12:51:43;32.83;;;22.35;;
38457;SDS011;24239;48.058;10.486;2022-08-19T12:54:08;40.08;;;22.52;;
38457;SDS011;24239;48.058;10.486;2022-08-19T12:56:35;29.88;;;18.63;;
38457;SDS011;24239;48.058;10.486;2022-08-19T12:59:02;28.08;;;19.90;;
38457;SDS011;24239;48.058;10.486;2022-08-19T13:01:29;28.85;;;18.85;;
38457;SDS011;24239;48.058;10.486;2022-08-19T13:03:57;31.40;;;18.52;;
38457;SDS011;24239;48.058;10.486;2022-08-19T13:06:24;22.92;;;16.70;;
38457;SDS011;24239;48.058;10.486;2022-08-19T13:08:51;23.20;;;16.08;;
38457;SDS011;24239;48.058;10.486;2022-08-19T13:11:19;23.83;;;15.85;;
38457;SDS011;24239;48.058;10.486;2022-08-19T13:13:48;22.13;;;15.60;;
38457;SDS011;24239;48.058;10.486;2022-08-19T13:16:16;26.55;;;16.52;;
38457;SDS011;24239;48.058;10.486;2022-08-19T13:18:43;34.67;;;19.65;;
38457;SDS011;24239;48.058;10.486;2022-08-19T13:21:12;39.38;;;21.10;;
38457;SDS011;24239;48.058;10.486;2022-08-19T13:23:38;20.23;;;14.80;;
38457;SDS011;24239;48.058;10.486;2022-08-19T13:26:08;18.77;;;12.90;;
38457;SDS011;24239;48.058;10.486;2022-08-19T13:28:35;18.25;;;14.43;;
38457;SDS011;24239;48.058;10.486;2022-08-19T13:31:20;21.05;;;14.98;;
38457;SDS011;24239;48.058;10.486;2022-08-19T13:34:06;14.05;;;10.50;;
38457;SDS011;24239;48.058;10.486;2022-08-19T13:36:36;12.27;;;9.77;;
38457;SDS011;24239;48.058;10.486;2022-08-19T13:39:06;14.18;;;10.27;;
38457;SDS011;24239;48.058;10.486;2022-08-19T13:41:34;12.57;;;9.53;;
38457;SDS011;24239;48.058;10.486;2022-08-19T13:44:01;16.67;;;10.40;;
38457;SDS011;24239;48.058;10.486;2022-08-19T13:46:27;13.25;;;10.02;;
38457;SDS011;24239;48.058;10.486;2022-08-19T13:48:54;11.35;;;9.60;;
38457;SDS011;24239;48.058;10.486;2022-08-19T13:51:21;10.10;;;8.85;;
38457;SDS011;24239;48.058;10.486;2022-08-19T13:53:47;9.30;;;7.68;;
38457;SDS011;24239;48.058;10.486;2022-08-19T13:56:17;11.15;;;7.75;;
38457;SDS011;24239;48.058;10.486;2022-08-19T13:58:44;13.55;;;9.32;;
38457;SDS011;24239;48.058;10.486;2022-08-19T14:01:18;8.15;;;6.90;;
38457;SDS011;24239;48.058;10.486;2022-08-19T14:03:45;8.55;;;6.80;;
38457;SDS011;24239;48.058;10.486;2022-08-19T14:06:11;7.85;;;6.45;;
38457;SDS011;24239;48.058;10.486;2022-08-19T14:08:37;7.75;;;6.53;;
38457;SDS011;24239;48.058;10.486;2022-08-19T14:11:04;9.25;;;6.47;;
38457;SDS011;24239;48.058;10.486;2022-08-19T14:13:30;7.05;;;5.70;;
38457;SDS011;24239;48.058;10.486;2022-08-19T14:15:58;7.32;;;6.28;;
38457;SDS011;24239;48.058;10.486;2022-08-19T14:18:24;7.50;;;6.57;;
38457;SDS011;24239;48.058;10.486;2022-08-19T14:20:50;6.28;;;5.03;;
38457;SDS011;24239;48.058;10.486;2022-08-19T14:23:17;4.93;;;4.53;;
38457;SDS011;24239;48.058;10.486;2022-08-19T14:25:42;5.80;;;5.13;;
38457;SDS011;24239;48.058;10.486;2022-08-19T14:28:12;4.30;;;3.90;;
38457;SDS011;24239;48.058;10.486;2022-08-19T14:30:37;4.53;;;4.13;;